Time;durP1;ratioP1;P1;durP2;ratioP2;P2;SDS_P1;SDS_P2;PMS_P1;PMS_P2;Temp;Humidity;BMP_temperature;BMP_pressure;BME280_temperature;BME280_humidity;BME280_pressure;Samples;Min_cycle;Max_cycle;Signal;HPM_P1;HPM_P2
2020/12/03 00:01:10;;;;;;;49.10;29.38;;;23.10;25.20;;;;;;6272601;27;83135;-62
2020/12/03 00:04:11;;;;;;;53.25;31.92;;;23.10;24.90;;;;;;6271232;27;83437;-65
2020/12/03 00:07:11;;;;;;;50.53;30.05;;;23.10;25.00;;;;;;6272850;27;83373;-65
2020/12/03 00:10:12;;;;;;;49.20;30.42;;;23.10;25.10;;;;;;6267891;27;83260;-63
2020/12/03 00:13:13;;;;;;;54.20;31.80;;;23.10;24.90;;;;;;6257882;27;85143;-63
2020/12/03 00:16:13;;;;;;;54.15;31.95;;;23.00;25.10;;;;;;6271159;27;83285;-64
2020/12/03 00:19:14;;;;;;;53.08;30.88;;;23.00;25.00;;;;;;6272327;27;84192;-65
2020/12/03 00:22:14;;;;;;;53.67;30.48;;;23.00;25.30;;;;;;6251756;27;82919;-65
2020/12/03 00:25:15;;;;;;;52.22;31.02;;;23.00;25.10;;;;;;6253979;27;85836;-63
2020/12/03 00:28:15;;;;;;;52.05;31.05;;;23.00;25.20;;;;;;6256747;27;83118;-63
2020/12/03 00:31:16;;;;;;;51.67;30.60;;;23.00;25.10;;;;;;6266251;27;83134;-62
2020/12/03 00:34:17;;;;;;;55.63;32.78;;;23.00;25.30;;;;;;6250045;27;83416;-65
2020/12/03 00:37:17;;;;;;;53.80;32.28;;;23.00;25.30;;;;;;6265053;27;83809;-64
2020/12/03 00:40:18;;;;;;;53.10;32.67;;;23.00;25.20;;;;;;6260658;27;83123;-63
2020/12/03 00:43:18;;;;;;;53.47;32.33;;;23.00;25.00;;;;;;6270735;27;83109;-63
2020/12/03 00:46:19;;;;;;;54.17;31.35;;;23.00;25.00;;;;;;6272203;27;83372;-64
2020/12/03 00:49:20;;;;;;;53.03;32.15;;;23.00;25.00;;;;;;6258144;27;85071;-63
2020/12/03 00:52:24;;;;;;;55.42;33.28;;;23.00;24.90;;;;;;6258931;27;86841;-63
2020/12/03 00:55:26;;;;;;;58.10;33.33;;;23.00;25.00;;;;;;6263361;27;84186;-63
2020/12/03 00:58:26;;;;;;;58.10;34.35;;;23.00;25.00;;;;;;6266108;27;83598;-64
2020/12/03 01:01:27;;;;;;;58.58;34.03;;;23.00;24.80;;;;;;6271515;27;84076;-63
2020/12/03 01:04:27;;;;;;;57.53;33.47;;;23.00;24.80;;;;;;6271756;27;84984;-63
2020/12/03 01:07:28;;;;;;;58.33;33.67;;;22.90;24.90;;;;;;6270329;27;83015;-63
2020/12/03 01:10:29;;;;;;;58.33;33.70;;;23.00;25.00;;;;;;6270156;27;82783;-63
2020/12/03 01:13:29;;;;;;;62.25;34.67;;;22.90;24.60;;;;;;6251323;27;87045;-64
2020/12/03 01:16:30;;;;;;;58.90;35.85;;;23.00;24.70;;;;;;6270195;27;83350;-64
2020/12/03 01:19:30;;;;;;;55.92;33.70;;;23.00;24.70;;;;;;6269366;27;85235;-63
2020/12/03 01:22:31;;;;;;;63.72;35.08;;;23.00;24.60;;;;;;6269771;27;83523;-63
2020/12/03 01:25:31;;;;;;;61.80;36.15;;;22.90;24.50;;;;;;6269943;27;83317;-62
2020/12/03 01:28:32;;;;;;;58.88;34.88;;;23.00;24.50;;;;;;6272706;27;83376;-62
2020/12/03 01:31:32;;;;;;;58.97;35.17;;;23.00;24.40;;;;;;6273492;27;83413;-64
2020/12/03 01:34:33;;;;;;;59.15;34.00;;;23.00;24.60;;;;;;6275002;27;83263;-64
2020/12/03 01:37:33;;;;;;;61.17;36.50;;;22.90;24.50;;;;;;6265087;27;83177;-64
2020/12/03 01:40:34;;;;;;;60.72;35.65;;;23.00;24.50;;;;;;6275903;27;83019;-64
2020/12/03 01:43:35;;;;;;;64.50;36.05;;;22.90;24.40;;;;;;6250773;27;83337;-64
2020/12/03 01:46:37;;;;;;;57.65;35.50;;;22.90;25.00;;;;;;6270794;27;83940;-63
2020/12/03 01:49:37;;;;;;;64.72;35.78;;;23.00;24.50;;;;;;6275947;27;83621;-64
2020/12/03 01:52:38;;;;;;;61.53;35.75;;;22.90;24.40;;;;;;6274157;27;83232;-64
2020/12/03 01:55:38;;;;;;;63.58;35.58;;;22.90;24.40;;;;;;6271635;27;83276;-65
2020/12/03 01:58:39;;;;;;;68.03;39.13;;;23.00;24.40;;;;;;6274948;27;83307;-63
2020/12/03 02:01:40;;;;;;;64.88;37.58;;;22.90;24.30;;;;;;6272621;27;83877;-63
2020/12/03 02:04:40;;;;;;;60.10;37.35;;;22.90;24.30;;;;;;6272258;27;83486;-64
2020/12/03 02:07:41;;;;;;;63.92;36.03;;;22.90;24.40;;;;;;6263016;27;83216;-64
2020/12/03 02:10:41;;;;;;;66.00;37.33;;;22.90;24.40;;;;;;6273856;27;83310;-63
2020/12/03 02:13:42;;;;;;;66.57;37.58;;;22.90;24.30;;;;;;6262891;27;84421;-64
2020/12/03 02:16:42;;;;;;;63.10;36.67;;;23.00;24.40;;;;;;6269727;27;83727;-63
2020/12/03 02:19:43;;;;;;;61.13;35.70;;;22.90;24.50;;;;;;6271957;27;82961;-63
2020/12/03 02:22:44;;;;;;;65.03;36.53;;;23.00;24.60;;;;;;6264081;27;83248;-63
2020/12/03 02:25:44;;;;;;;63.95;36.95;;;22.90;25.10;;;;;;6272339;27;87541;-63
2020/12/03 02:28:45;;;;;;;62.70;36.67;;;22.90;24.30;;;;;;6258790;27;83579;-63
2020/12/03 02:31:45;;;;;;;71.47;38.10;;;22.90;24.40;;;;;;6270516;27;84423;-65
2020/12/03 02:34:46;;;;;;;65.35;36.83;;;22.90;24.40;;;;;;6268287;27;83265;-63
2020/12/03 02:37:46;;;;;;;64.80;36.22;;;22.90;24.40;;;;;;6266605;27;83721;-64
2020/12/03 02:40:47;;;;;;;66.63;38.72;;;22.90;24.50;;;;;;6271554;27;83456;-63
2020/12/03 02:43:48;;;;;;;65.97;37.55;;;22.90;24.50;;;;;;6269332;27;83718;-64
2020/12/03 02:46:48;;;;;;;67.18;38.00;;;22.90;24.50;;;;;;6259339;27;83090;-64
2020/12/03 02:49:49;;;;;;;66.90;37.47;;;22.90;24.50;;;;;;6264263;27;83517;-63
2020/12/03 02:52:49;;;;;;;66.65;38.95;;;22.90;24.40;;;;;;6274815;27;85813;-62
2020/12/03 02:55:50;;;;;;;71.40;39.42;;;22.90;24.30;;;;;;6272677;27;83158;-63
2020/12/03 02:58:50;;;;;;;68.15;39.13;;;22.90;24.50;;;;;;6265239;27;85255;-63
2020/12/03 03:01:51;;;;;;;69.97;39.28;;;22.90;24.60;;;;;;6272204;27;85928;-63
2020/12/03 03:04:51;;;;;;;69.35;38.92;;;22.90;24.40;;;;;;6264341;27;83429;-63
2020/12/03 03:07:52;;;;;;;72.13;39.58;;;22.90;24.40;;;;;;6272986;27;83622;-64
2020/12/03 03:10:52;;;;;;;70.70;38.53;;;22.90;24.20;;;;;;6263917;27;83400;-63
2020/12/03 03:13:53;;;;;;;65.85;38.90;;;22.90;24.30;;;;;;6270168;27;83047;-63
2020/12/03 03:16:54;;;;;;;68.95;39.28;;;22.90;24.30;;;;;;6254208;27;83108;-63
2020/12/03 03:19:54;;;;;;;66.97;38.95;;;22.90;24.50;;;;;;6272651;27;83789;-64
2020/12/03 03:22:55;;;;;;;68.50;38.88;;;22.90;24.40;;;;;;6261420;27;82987;-64
2020/12/03 03:25:55;;;;;;;64.88;38.00;;;22.90;24.30;;;;;;6265050;27;83306;-63
2020/12/03 03:28:56;;;;;;;69.65;39.15;;;22.90;24.30;;;;;;6258658;27;84471;-64
2020/12/03 03:31:56;;;;;;;67.32;38.22;;;22.90;24.20;;;;;;6270032;27;83727;-64
2020/12/03 03:34:57;;;;;;;67.25;37.70;;;22.90;24.40;;;;;;6274694;27;84356;-64
2020/12/03 03:37:57;;;;;;;67.88;37.95;;;22.90;24.50;;;;;;6249861;27;83834;-64
2020/12/03 03:40:58;;;;;;;71.07;38.90;;;22.90;24.40;;;;;;6265467;27;82989;-64
2020/12/03 03:43:58;;;;;;;67.97;38.15;;;22.90;24.40;;;;;;6264526;27;83917;-64
2020/12/03 03:46:59;;;;;;;69.07;37.60;;;22.90;24.50;;;;;;6257506;27;83520;-62
2020/12/03 03:50:00;;;;;;;68.72;38.88;;;22.90;24.50;;;;;;6259072;27;87584;-57
2020/12/03 03:53:00;;;;;;;68.28;38.47;;;22.80;24.40;;;;;;6260754;27;87634;-61
2020/12/03 03:56:01;;;;;;;71.00;39.05;;;22.90;24.50;;;;;;6265172;27;83569;-63
2020/12/03 03:59:01;;;;;;;67.55;37.60;;;22.90;24.50;;;;;;6271584;27;83411;-63
2020/12/03 04:02:02;;;;;;;69.03;37.15;;;22.90;24.50;;;;;;6264064;27;83018;-63
2020/12/03 04:05:03;;;;;;;68.15;37.70;;;22.90;24.70;;;;;;6273222;27;83182;-62
2020/12/03 04:08:04;;;;;;;70.53;38.72;;;22.90;24.50;;;;;;6272013;27;85764;-63
2020/12/03 04:11:04;;;;;;;67.50;38.42;;;22.90;24.70;;;;;;6265292;27;86079;-62
2020/12/03 04:14:05;;;;;;;73.25;38.47;;;22.90;24.50;;;;;;6273045;27;83830;-62
2020/12/03 04:17:05;;;;;;;67.82;37.83;;;22.90;24.60;;;;;;6268963;27;83274;-63
2020/12/03 04:20:06;;;;;;;67.00;39.13;;;22.90;24.50;;;;;;6263043;27;83171;-63
2020/12/03 04:23:06;;;;;;;70.22;39.80;;;22.90;24.30;;;;;;6254587;27;83751;-64
2020/12/03 04:26:07;;;;;;;70.82;38.47;;;22.90;24.40;;;;;;6272164;27;83361;-63
2020/12/03 04:29:07;;;;;;;67.35;37.78;;;22.80;24.10;;;;;;6272739;27;84080;-63
2020/12/03 04:32:08;;;;;;;68.22;37.85;;;22.90;24.20;;;;;;6272475;27;84432;-64
2020/12/03 04:35:09;;;;;;;75.85;41.58;;;22.80;24.10;;;;;;6256382;27;83306;-65
2020/12/03 04:38:09;;;;;;;75.05;40.60;;;22.80;24.00;;;;;;6263379;27;84492;-65
2020/12/03 04:41:10;;;;;;;74.07;39.00;;;22.80;24.00;;;;;;6263702;27;86083;-63
2020/12/03 04:44:10;;;;;;;72.07;38.95;;;22.80;24.10;;;;;;6266254;27;84223;-63
2020/12/03 04:47:11;;;;;;;72.47;37.47;;;22.80;24.00;;;;;;6267798;27;83404;-64
2020/12/03 04:50:11;;;;;;;74.10;40.53;;;22.80;23.90;;;;;;6271962;27;83323;-64
2020/12/03 04:53:12;;;;;;;71.72;39.40;;;22.80;23.90;;;;;;6270408;27;83469;-63
2020/12/03 04:56:12;;;;;;;75.53;40.05;;;22.80;23.90;;;;;;6260924;27;85482;-64
2020/12/03 04:59:13;;;;;;;71.63;39.28;;;22.80;24.00;;;;;;6274369;27;83140;-64
2020/12/03 05:02:14;;;;;;;69.85;38.20;;;22.80;24.00;;;;;;6266295;27;84572;-64
2020/12/03 05:05:14;;;;;;;76.10;40.88;;;22.80;23.80;;;;;;6272369;27;91868;-65
2020/12/03 05:08:15;;;;;;;76.20;40.45;;;22.80;23.80;;;;;;6266294;27;83691;-64
2020/12/03 05:11:15;;;;;;;72.72;39.67;;;22.80;23.90;;;;;;6273566;27;85894;-63
2020/12/03 05:14:16;;;;;;;74.97;38.47;;;22.80;24.00;;;;;;6264442;27;83359;-64
2020/12/03 05:17:16;;;;;;;70.30;39.33;;;22.80;23.80;;;;;;6262237;27;83410;-64
2020/12/03 05:20:17;;;;;;;69.70;38.33;;;22.80;23.80;;;;;;6265290;27;84468;-64
2020/12/03 05:23:18;;;;;;;75.50;40.05;;;22.80;23.80;;;;;;6265023;27;85965;-63
2020/12/03 05:26:18;;;;;;;71.05;37.85;;;22.80;23.90;;;;;;6261835;27;83336;-63
2020/12/03 05:29:21;;;;;;;60.53;33.33;;;22.80;23.90;;;;;;6264388;27;84237;-64
2020/12/03 05:32:21;;;;;;;68.80;37.83;;;22.80;24.40;;;;;;6262987;27;83457;-65
2020/12/03 05:35:22;;;;;;;63.10;35.85;;;22.80;25.00;;;;;;6271138;27;83239;-65
2020/12/03 05:38:23;;;;;;;58.17;33.08;;;22.80;24.50;;;;;;6271987;27;83865;-65
2020/12/03 05:41:23;;;;;;;67.72;35.65;;;22.80;25.30;;;;;;6268770;27;83269;-64
2020/12/03 05:44:24;;;;;;;63.97;35.30;;;22.80;24.80;;;;;;6273229;27;85024;-64
2020/12/03 05:47:24;;;;;;;68.13;37.85;;;22.80;24.80;;;;;;6270861;27;85735;-66
2020/12/03 05:50:25;;;;;;;60.70;34.50;;;22.80;24.20;;;;;;6266701;27;83378;-67
2020/12/03 05:53:25;;;;;;;65.82;35.15;;;22.80;24.90;;;;;;6276721;27;83496;-67
2020/12/03 05:56:27;;;;;;;66.15;36.08;;;22.80;24.90;;;;;;6265822;27;84515;-67
2020/12/03 05:59:27;;;;;;;69.20;35.35;;;22.90;25.50;;;;;;6268511;27;83521;-67
2020/12/03 06:02:28;;;;;;;59.75;34.13;;;22.90;25.30;;;;;;6258041;27;84578;-67
2020/12/03 06:05:28;;;;;;;64.18;35.33;;;22.90;25.50;;;;;;6266197;27;85234;-67
2020/12/03 06:08:29;;;;;;;63.60;36.10;;;22.90;26.00;;;;;;6266963;27;86199;-66
2020/12/03 06:11:30;;;;;;;73.35;38.33;;;22.90;26.10;;;;;;6272688;27;83589;-66
2020/12/03 06:14:30;;;;;;;65.57;35.55;;;22.90;26.00;;;;;;6269634;27;83671;-66
2020/12/03 06:17:31;;;;;;;67.22;37.55;;;23.00;26.30;;;;;;6257980;27;83309;-67
2020/12/03 06:20:31;;;;;;;65.20;36.50;;;23.00;26.20;;;;;;6272167;27;83195;-67
2020/12/03 06:23:32;;;;;;;67.35;37.50;;;23.00;26.60;;;;;;6260254;27;85832;-64
2020/12/03 06:26:33;;;;;;;62.65;36.78;;;23.00;26.60;;;;;;6275182;27;82958;-65
2020/12/03 06:29:33;;;;;;;67.68;37.53;;;23.00;26.80;;;;;;6268060;27;83292;-64
2020/12/03 06:32:34;;;;;;;73.10;38.88;;;23.00;26.80;;;;;;6276164;27;83129;-64
2020/12/03 06:35:34;;;;;;;58.22;30.65;;;22.90;26.90;;;;;;6269461;27;84185;-63
2020/12/03 06:38:35;;;;;;;54.55;28.67;;;22.80;28.50;;;;;;6264907;27;84652;-63
2020/12/03 06:41:35;;;;;;;52.65;25.73;;;22.70;29.30;;;;;;6263070;27;82897;-63
2020/12/03 06:44:36;;;;;;;42.72;24.05;;;22.60;30.50;;;;;;6274288;27;83166;-63
2020/12/03 06:47:36;;;;;;;48.10;24.30;;;22.60;31.00;;;;;;6261373;27;83433;-63
2020/12/03 06:50:37;;;;;;;39.78;20.42;;;22.60;31.80;;;;;;6274812;27;83432;-63
2020/12/03 06:53:37;;;;;;;37.45;21.00;;;22.50;32.40;;;;;;6274465;27;82923;-62
2020/12/03 06:56:38;;;;;;;34.22;20.35;;;22.40;32.70;;;;;;6257720;27;83065;-62
2020/12/03 06:59:38;;;;;;;37.15;18.58;;;22.40;33.00;;;;;;6257771;27;83913;-61
2020/12/03 07:02:39;;;;;;;38.75;19.80;;;22.40;33.70;;;;;;6259660;27;83506;-61
2020/12/03 07:05:40;;;;;;;32.95;18.27;;;22.40;33.10;;;;;;6257740;27;83688;-59
2020/12/03 07:08:40;;;;;;;32.08;18.65;;;22.30;33.90;;;;;;6257533;27;83964;-59
2020/12/03 07:11:41;;;;;;;33.85;18.55;;;22.30;34.10;;;;;;6273109;27;83036;-59
2020/12/03 07:14:41;;;;;;;32.97;17.70;;;22.20;34.30;;;;;;6244087;27;83270;-60
2020/12/03 07:17:42;;;;;;;33.45;19.05;;;22.10;34.30;;;;;;6265622;27;83399;-59
2020/12/03 07:20:42;;;;;;;32.22;18.13;;;22.20;34.40;;;;;;6264389;27;83494;-59
2020/12/03 07:23:43;;;;;;;30.35;18.30;;;22.20;34.50;;;;;;6267442;27;84523;-59
2020/12/03 07:26:44;;;;;;;34.20;19.92;;;22.20;34.60;;;;;;6268391;27;84504;-60
2020/12/03 07:29:44;;;;;;;33.45;18.30;;;22.20;34.70;;;;;;6263150;27;86178;-61
2020/12/03 07:32:45;;;;;;;31.73;18.00;;;22.20;34.80;;;;;;6265909;27;82830;-59
2020/12/03 07:35:46;;;;;;;33.97;18.52;;;22.20;35.10;;;;;;6270074;27;83769;-61
2020/12/03 07:38:46;;;;;;;34.60;19.65;;;22.30;35.40;;;;;;6259567;27;83301;-61
2020/12/03 07:41:47;;;;;;;33.65;18.83;;;22.30;35.70;;;;;;6273449;27;83594;-60
2020/12/03 07:44:50;;;;;;;31.48;18.90;;;22.30;34.70;;;;;;6264571;27;83139;-60
2020/12/03 07:47:51;;;;;;;32.95;19.50;;;22.40;34.50;;;;;;6273543;27;83490;-60
2020/12/03 07:50:51;;;;;;;36.60;19.45;;;22.40;34.50;;;;;;6270633;27;83448;-60
2020/12/03 07:53:52;;;;;;;33.55;19.88;;;22.30;34.80;;;;;;6267827;27;84018;-59
2020/12/03 07:56:53;;;;;;;36.75;20.45;;;22.40;34.70;;;;;;6269445;27;84981;-60
2020/12/03 07:59:53;;;;;;;35.90;19.27;;;22.40;34.50;;;;;;6265886;27;83067;-60
2020/12/03 08:02:54;;;;;;;33.65;18.38;;;22.50;34.30;;;;;;6265831;27;83165;-60
2020/12/03 08:05:54;;;;;;;32.35;18.85;;;22.50;35.00;;;;;;6265666;27;83277;-60
2020/12/03 08:08:55;;;;;;;30.30;18.50;;;22.50;35.30;;;;;;6259671;27;83500;-61
2020/12/03 08:11:55;;;;;;;30.15;16.77;;;22.50;35.50;;;;;;6269872;27;83425;-61
2020/12/03 08:14:56;;;;;;;29.90;18.88;;;22.40;35.90;;;;;;6270104;27;85451;-60
2020/12/03 08:17:56;;;;;;;33.13;18.50;;;22.50;35.60;;;;;;6274222;27;83278;-61
2020/12/03 08:20:57;;;;;;;35.45;19.08;;;22.50;35.50;;;;;;6269544;27;83633;-61
2020/12/03 08:23:58;;;;;;;48.72;18.60;;;22.40;35.90;;;;;;6261310;27;83625;-61
2020/12/03 08:26:58;;;;;;;36.70;19.90;;;22.40;36.20;;;;;;6255352;27;86698;-60
2020/12/03 08:29:59;;;;;;;31.98;18.70;;;22.40;36.00;;;;;;6269532;27;82967;-61
2020/12/03 08:32:59;;;;;;;31.90;19.30;;;22.30;36.20;;;;;;6255797;27;83813;-60
2020/12/03 08:36:00;;;;;;;35.25;18.80;;;22.30;36.10;;;;;;6259816;27;85556;-60
2020/12/03 08:39:01;;;;;;;37.25;19.63;;;22.30;36.30;;;;;;6266764;27;82848;-61
2020/12/03 08:42:01;;;;;;;36.05;19.75;;;22.20;36.20;;;;;;6265429;27;84631;-62
2020/12/03 08:45:02;;;;;;;38.92;19.98;;;22.30;36.40;;;;;;6268584;27;83310;-61
2020/12/03 08:48:02;;;;;;;43.05;21.67;;;22.40;37.10;;;;;;6264425;27;83630;-60
2020/12/03 08:51:04;;;;;;;46.10;22.05;;;22.40;37.60;;;;;;6251878;27;86334;-60
2020/12/03 08:54:05;;;;;;;39.53;21.17;;;22.40;38.00;;;;;;6270509;27;82873;-61
2020/12/03 08:57:05;;;;;;;43.88;20.75;;;22.40;38.60;;;;;;6269263;27;89855;-61
2020/12/03 09:00:07;;;;;;;35.83;20.13;;;22.50;38.70;;;;;;6259916;27;83388;-61
2020/12/03 09:03:08;;;;;;;38.33;20.55;;;22.50;39.50;;;;;;6265175;27;83404;-60
2020/12/03 09:06:08;;;;;;;43.28;21.27;;;22.50;39.50;;;;;;6255366;27;83698;-60
2020/12/03 09:09:09;;;;;;;33.80;19.92;;;22.50;40.40;;;;;;6262362;27;83516;-60
2020/12/03 09:12:10;;;;;;;33.22;20.02;;;22.60;40.50;;;;;;6254608;27;86133;-61
2020/12/03 09:15:10;;;;;;;32.75;18.30;;;22.50;40.20;;;;;;6266658;27;86469;-61
2020/12/03 09:18:11;;;;;;;38.13;20.27;;;22.50;40.50;;;;;;6264652;27;82999;-62
2020/12/03 09:21:11;;;;;;;36.20;19.80;;;22.50;40.50;;;;;;6264142;27;83847;-60
2020/12/03 09:24:12;;;;;;;34.20;19.05;;;22.60;39.20;;;;;;6258871;27;83626;-61
2020/12/03 09:27:13;;;;;;;34.30;19.15;;;22.60;39.30;;;;;;6257386;27;83387;-61
2020/12/03 09:30:13;;;;;;;35.15;19.90;;;22.60;39.00;;;;;;6264567;27;85065;-61
2020/12/03 09:33:14;;;;;;;29.95;18.10;;;22.70;38.50;;;;;;6240201;27;83478;-60
2020/12/03 09:36:14;;;;;;;26.88;16.70;;;22.60;38.30;;;;;;6265047;27;83913;-60
2020/12/03 09:39:15;;;;;;;33.83;19.25;;;22.60;39.30;;;;;;6247739;27;85664;-60
2020/12/03 09:42:16;;;;;;;33.75;18.08;;;22.50;39.20;;;;;;6271838;27;83377;-60
2020/12/03 09:45:16;;;;;;;26.35;17.52;;;22.40;39.80;;;;;;6272313;27;85985;-61
2020/12/03 09:48:18;;;;;;;30.77;17.85;;;22.50;38.90;;;;;;6275794;27;82915;-62
2020/12/03 09:51:18;;;;;;;33.75;17.83;;;22.50;38.80;;;;;;6269498;27;83856;-63
2020/12/03 09:54:19;;;;;;;31.50;18.40;;;22.40;38.70;;;;;;6274488;27;83462;-62
2020/12/03 09:57:19;;;;;;;30.02;17.98;;;22.40;38.20;;;;;;6266069;27;84994;-61
2020/12/03 10:00:20;;;;;;;29.23;17.85;;;22.40;38.30;;;;;;6267642;27;84263;-62
2020/12/03 10:03:21;;;;;;;29.55;17.13;;;22.40;38.50;;;;;;6271274;27;82984;-60
2020/12/03 10:06:22;;;;;;;29.45;17.13;;;22.40;38.30;;;;;;6265934;27;83284;-61
2020/12/03 10:09:23;;;;;;;32.60;18.67;;;22.50;38.20;;;;;;6273984;27;83061;-60
2020/12/03 10:12:23;;;;;;;34.63;18.50;;;22.40;38.20;;;;;;6256017;27;84232;-60
2020/12/03 10:15:24;;;;;;;30.73;17.58;;;22.40;38.20;;;;;;6259070;27;83390;-61
2020/12/03 10:18:25;;;;;;;29.38;17.23;;;22.40;37.90;;;;;;6267451;27;85803;-60
2020/12/03 10:21:25;;;;;;;32.65;18.08;;;22.40;37.70;;;;;;6260175;27;83970;-61
2020/12/03 10:24:26;;;;;;;33.40;17.83;;;22.40;37.30;;;;;;6269197;27;83565;-61
2020/12/03 10:27:26;;;;;;;36.13;18.40;;;22.40;37.40;;;;;;6253288;27;83388;-61
2020/12/03 10:30:27;;;;;;;35.28;19.67;;;22.40;37.10;;;;;;6267886;27;84026;-60
2020/12/03 10:33:29;;;;;;;36.72;20.13;;;22.50;37.20;;;;;;6264186;27;85190;-60
2020/12/03 10:36:30;;;;;;;34.47;19.63;;;22.50;37.10;;;;;;6264100;27;83216;-61
2020/12/03 10:39:31;;;;;;;33.25;19.75;;;22.50;37.10;;;;;;6270868;27;83370;-61
2020/12/03 10:42:31;;;;;;;30.90;17.85;;;22.50;36.80;;;;;;6270102;27;84995;-62
2020/12/03 10:45:33;;;;;;;30.63;17.08;;;22.60;36.30;;;;;;6264052;27;83280;-62
2020/12/03 10:48:35;;;;;;;23.65;15.13;;;22.60;36.10;;;;;;6275022;27;83242;-63
2020/12/03 10:51:35;;;;;;;28.10;15.43;;;22.60;35.70;;;;;;6268961;27;84213;-64
2020/12/03 10:54:36;;;;;;;26.42;15.55;;;22.60;35.30;;;;;;6269908;27;83415;-63
2020/12/03 10:57:36;;;;;;;29.15;15.23;;;22.60;34.80;;;;;;6259205;27;83484;-62
2020/12/03 11:00:37;;;;;;;28.50;17.08;;;22.60;34.60;;;;;;6260096;27;85167;-63
2020/12/03 11:03:37;;;;;;;27.50;16.25;;;22.50;34.40;;;;;;6257635;27;83270;-62
2020/12/03 11:06:38;;;;;;;33.50;16.27;;;22.50;33.90;;;;;;6266846;27;83305;-63
2020/12/03 11:09:39;;;;;;;26.10;14.80;;;22.50;33.80;;;;;;6270176;27;84100;-63
2020/12/03 11:12:39;;;;;;;23.25;13.50;;;22.50;34.20;;;;;;6273219;27;82872;-63
2020/12/03 11:15:40;;;;;;;32.53;14.38;;;22.50;34.20;;;;;;6268957;27;83301;-62
2020/12/03 11:18:41;;;;;;;25.50;14.52;;;22.50;34.30;;;;;;6265581;27;84783;-63
2020/12/03 11:21:42;;;;;;;24.20;12.85;;;22.50;34.40;;;;;;6270900;27;83443;-61
2020/12/03 11:24:42;;;;;;;25.92;14.80;;;22.50;34.20;;;;;;6265987;27;84647;-62
2020/12/03 11:27:43;;;;;;;28.67;14.18;;;22.50;33.30;;;;;;6266292;27;84523;-61
2020/12/03 11:30:43;;;;;;;26.55;15.57;;;22.50;33.30;;;;;;6269513;27;83553;-62
2020/12/03 11:33:44;;;;;;;29.63;15.98;;;22.50;32.90;;;;;;6269787;27;84695;-62
2020/12/03 11:36:45;;;;;;;32.47;16.73;;;22.50;33.20;;;;;;6272552;27;84200;-61
2020/12/03 11:39:47;;;;;;;29.25;16.17;;;22.50;33.00;;;;;;6273315;27;83403;-62
2020/12/03 11:42:57;;;;;;;27.48;14.75;;;22.50;33.10;;;;;;6264499;27;83536;-61
2020/12/03 11:49:16;;;;;;;24.45;14.07;;;22.50;32.80;;;;;;6267925;27;86085;-62
2020/12/03 11:52:17;;;;;;;31.83;16.50;;;22.50;32.90;;;;;;6273685;27;84333;-63
2020/12/03 11:55:18;;;;;;;27.23;14.00;;;22.50;32.60;;;;;;6273675;27;84401;-63
2020/12/03 11:58:19;;;;;;;28.33;14.23;;;22.50;33.10;;;;;;6272316;27;86203;-63
2020/12/03 12:01:19;;;;;;;23.88;13.77;;;22.50;32.60;;;;;;6269135;27;84065;-62
2020/12/03 12:04:25;;;;;;;25.90;13.35;;;22.50;32.60;;;;;;6265430;27;83735;-64
2020/12/03 12:10:34;;;;;;;22.30;13.77;;;22.50;31.80;;;;;;6257337;27;84287;-64
2020/12/03 12:13:35;;;;;;;;;;;22.40;31.30;;;;;;6258601;27;85603;-63
2020/12/03 12:16:36;;;;;;;22.63;14.45;;;22.40;31.20;;;;;;6277826;27;81572;-64
2020/12/03 12:19:37;;;;;;;22.63;14.50;;;22.40;30.80;;;;;;6260840;27;85854;-65
2020/12/03 12:22:38;;;;;;;26.17;15.48;;;22.40;31.10;;;;;;6258662;27;83599;-65
2020/12/03 12:25:38;;;;;;;29.98;17.70;;;22.30;31.10;;;;;;6264132;27;83890;-64
2020/12/03 12:28:39;;;;;;;31.27;19.90;;;22.30;31.10;;;;;;6258772;27;83944;-66
2020/12/03 12:31:40;;;;;;;35.33;21.52;;;22.30;30.60;;;;;;6265797;27;82979;-64
2020/12/03 12:34:41;;;;;;;42.55;23.40;;;22.30;30.50;;;;;;6265527;27;84133;-64
2020/12/03 12:37:42;;;;;;;34.88;20.13;;;22.30;30.20;;;;;;6266284;27;83477;-65
2020/12/03 12:40:42;;;;;;;39.03;22.83;;;22.30;30.60;;;;;;6265709;27;83583;-65
2020/12/03 12:43:43;;;;;;;45.17;25.38;;;22.30;30.20;;;;;;6264453;27;85743;-66
2020/12/03 12:46:43;;;;;;;46.55;25.85;;;22.30;30.00;;;;;;6266144;27;84135;-65
2020/12/03 12:49:44;;;;;;;42.78;23.88;;;22.30;29.90;;;;;;6269525;27;83276;-66
2020/12/03 12:52:45;;;;;;;44.97;26.15;;;22.30;30.00;;;;;;6268381;27;83474;-66
2020/12/03 12:55:45;;;;;;;44.53;26.60;;;22.30;29.80;;;;;;6260841;27;84642;-66
2020/12/03 12:58:46;;;;;;;44.75;27.13;;;22.30;29.80;;;;;;6266533;27;84211;-66
2020/12/03 13:01:47;;;;;;;45.50;28.00;;;22.30;29.60;;;;;;6262492;27;84262;-65
2020/12/03 13:04:47;;;;;;;48.30;27.40;;;22.30;29.50;;;;;;6264333;27;86279;-65
2020/12/03 13:07:48;;;;;;;48.08;26.83;;;22.30;29.70;;;;;;6268372;27;83569;-66
2020/12/03 13:10:49;;;;;;;48.00;27.35;;;22.30;29.50;;;;;;6254568;27;83379;-66
2020/12/03 13:13:49;;;;;;;50.05;26.50;;;22.30;29.70;;;;;;6256183;27;83840;-65
2020/12/03 13:16:50;;;;;;;46.53;28.13;;;22.30;29.40;;;;;;6264179;27;82996;-64
2020/12/03 13:19:51;;;;;;;52.35;28.17;;;22.30;29.30;;;;;;6260723;27;83613;-64
2020/12/03 13:22:51;;;;;;;46.58;27.13;;;22.30;29.30;;;;;;6253545;27;85906;-66
2020/12/03 13:25:52;;;;;;;47.35;26.30;;;22.30;29.30;;;;;;6267780;27;84311;-65
2020/12/03 13:28:52;;;;;;;42.80;26.45;;;22.30;29.40;;;;;;6271656;27;84044;-67
2020/12/03 13:31:53;;;;;;;41.75;24.80;;;22.30;29.50;;;;;;6266214;27;83768;-65
2020/12/03 13:34:54;;;;;;;45.72;26.52;;;22.40;29.70;;;;;;6267382;27;85579;-67
2020/12/03 13:37:54;;;;;;;42.55;24.83;;;22.40;29.80;;;;;;6268985;27;83024;-66
2020/12/03 13:40:55;;;;;;;40.88;23.70;;;22.50;29.70;;;;;;6268388;27;84105;-65
2020/12/03 13:43:55;;;;;;;41.22;22.23;;;22.70;30.10;;;;;;6266510;27;83093;-63
2020/12/03 13:46:56;;;;;;;41.40;22.60;;;22.80;30.10;;;;;;6265572;27;83587;-63
2020/12/03 13:49:57;;;;;;;41.10;21.58;;;22.90;30.00;;;;;;6266879;27;83485;-63
2020/12/03 13:52:57;;;;;;;37.47;22.02;;;23.00;29.90;;;;;;6265263;27;83331;-60
2020/12/03 13:55:58;;;;;;;39.05;21.25;;;23.00;29.90;;;;;;6260789;27;86547;-64
2020/12/03 13:58:59;;;;;;;39.42;21.88;;;23.00;30.00;;;;;;6263391;27;85820;-62
2020/12/03 14:02:00;;;;;;;40.33;21.67;;;23.10;30.20;;;;;;6262410;27;83452;-62
2020/12/03 14:05:00;;;;;;;39.10;21.50;;;23.10;30.10;;;;;;6266897;27;84316;-63
2020/12/03 14:08:01;;;;;;;40.80;22.08;;;23.10;30.30;;;;;;6270651;27;83659;-63
2020/12/03 14:11:02;;;;;;;43.67;22.08;;;23.10;30.50;;;;;;6268093;27;83535;-63
2020/12/03 14:14:02;;;;;;;40.92;22.20;;;23.10;30.30;;;;;;6261605;27;83528;-63
2020/12/03 14:17:03;;;;;;;43.40;22.90;;;23.20;30.50;;;;;;6264827;27;83695;-62
2020/12/03 14:20:04;;;;;;;39.08;21.98;;;23.20;30.50;;;;;;6267627;27;83005;-61
2020/12/03 14:23:04;;;;;;;45.08;22.40;;;23.20;30.50;;;;;;6255841;27;90177;-49
2020/12/03 14:26:05;;;;;;;39.60;21.65;;;23.20;30.30;;;;;;6265646;27;83239;-52
2020/12/03 14:29:06;;;;;;;39.08;21.85;;;23.30;30.30;;;;;;6264599;27;85407;-61
2020/12/03 14:32:06;;;;;;;39.60;22.08;;;23.20;30.20;;;;;;6266906;27;83600;-62
2020/12/03 14:35:07;;;;;;;41.75;23.38;;;23.30;30.10;;;;;;6256043;27;84566;-62
2020/12/03 14:38:08;;;;;;;39.58;22.13;;;23.20;30.10;;;;;;6269993;27;83341;-63
2020/12/03 14:41:08;;;;;;;39.85;21.05;;;23.30;30.40;;;;;;6266606;27;86082;-62
2020/12/03 14:44:09;;;;;;;39.92;24.13;;;23.20;30.50;;;;;;6265007;27;83118;-62
2020/12/03 14:47:10;;;;;;;42.03;21.55;;;23.20;30.40;;;;;;6257468;27;85730;-61
2020/12/03 14:50:14;;;;;;;44.03;24.48;;;23.30;30.50;;;;;;6267058;27;83182;-62
2020/12/03 14:53:14;;;;;;;38.20;23.02;;;23.30;30.40;;;;;;6271324;27;84547;-61
2020/12/03 14:56:15;;;;;;;42.08;23.17;;;23.30;30.40;;;;;;6261573;27;83149;-61
2020/12/03 14:59:17;;;;;;;33.53;21.88;;;23.20;30.10;;;;;;6272440;27;83768;-61
2020/12/03 15:02:20;;;;;;;42.80;22.10;;;23.30;30.00;;;;;;6274388;27;83582;-61
2020/12/03 15:05:21;;;;;;;35.03;21.27;;;23.30;29.80;;;;;;6271299;27;89870;-61
2020/12/03 15:08:22;;;;;;;36.92;20.65;;;23.30;29.60;;;;;;6270044;27;84312;-61
2020/12/03 15:11:25;;;;;;;36.40;21.15;;;23.30;29.40;;;;;;6263235;27;84014;-61
2020/12/03 15:14:26;;;;;;;35.65;22.23;;;23.30;29.20;;;;;;6261706;27;83355;-59
2020/12/03 15:17:26;;;;;;;33.92;19.35;;;23.20;29.90;;;;;;6266703;27;83888;-57
2020/12/03 15:20:27;;;;;;;37.40;19.77;;;23.20;29.90;;;;;;6267058;27;83363;-60
2020/12/03 15:23:28;;;;;;;32.25;18.83;;;23.20;30.10;;;;;;6265417;27;83571;-59